Time;durP1;ratioP1;P1;durP2;ratioP2;P2;SDS_P1;SDS_P2;PMS_P1;PMS_P2;Temp;Humidity;BMP_temperature;BMP_pressure;BME280_temperature;BME280_humidity;BME280_pressure;Samples;Min_cycle;Max_cycle;Signal;HPM_P1;HPM_P2
2023/06/14 07:23:14;;;;;;;7.22;4.32;;;;;;;-145.79;36.21;76747.78;5280525;28;20393;-68
2023/06/14 07:25:46;;;;;;;8.07;4.18;;;;;;;-145.79;36.05;76737.19;5279124;28;20033;-69
2023/06/14 07:28:23;;;;;;;8.65;4.30;;;;;;;-145.79;36.03;76732.97;5268985;28;20124;-70
2023/06/14 07:30:55;;;;;;;8.75;4.57;;;;;;;-145.79;36.10;76711.75;5259196;28;20025;-70
2023/06/14 07:33:26;;;;;;;44.78;9.77;;;;;;;-145.79;36.02;76711.75;5258493;28;20033;-74
2023/06/14 07:35:57;;;;;;;38.08;6.57;;;;;;;-145.79;36.29;76703.28;5278311;28;20052;-72
2023/06/14 07:38:28;;;;;;;14.95;5.95;;;;;;;-145.79;35.67;76682.09;5279723;28;20032;-70
2023/06/14 07:41:00;;;;;;;7.70;4.10;;;;;;;-145.79;35.80;76677.84;5278958;28;20498;-70
2023/06/14 07:43:32;;;;;;;7.40;4.25;;;;;;;-145.79;35.91;76658.78;5279841;28;20029;-68
2023/06/14 07:46:05;;;;;;;7.43;4.35;;;;;;;-145.79;36.08;76654.53;5261618;28;20079;-70
2023/06/14 07:48:39;;;;;;;6.95;4.47;;;;;;;-145.79;35.15;76652.44;5255660;28;20108;-70
2023/06/14 07:51:10;;;;;;;6.25;3.78;;;;;;;-145.79;35.45;76639.72;5258564;28;20116;-70
2023/06/14 07:53:42;;;;;;;5.85;4.18;;;;;;;-145.79;35.42;76637.59;5263644;28;20108;-70
2023/06/14 07:56:13;;;;;;;9.15;4.32;;;;;;;-145.79;35.41;76641.84;5274002;28;20111;-69
2023/06/14 07:58:44;;;;;;;9.25;3.75;;;;;;;-145.79;34.70;76635.47;5263916;28;20112;-69
2023/06/14 08:01:16;;;;;;;6.22;4.10;;;;;;;-145.79;35.12;76620.63;5257125;28;20121;-69
2023/06/14 08:03:48;;;;;;;8.27;4.28;;;;;;;-145.79;34.70;76622.75;5264548;28;20424;-72
2023/06/14 08:06:19;;;;;;;7.93;3.67;;;;;;;-145.79;34.12;76612.16;5278730;28;20033;-71
2023/06/14 08:08:50;;;;;;;7.10;3.60;;;;;;;-145.79;33.91;76612.16;5270084;28;20107;-71
2023/06/14 08:11:24;;;;;;;6.03;3.30;;;;;;;-145.79;33.96;76614.28;5257564;28;20056;-70
2023/06/14 08:13:55;;;;;;;6.35;3.55;;;;;;;-145.79;33.72;76601.56;5267535;28;20515;-70
2023/06/14 08:16:26;;;;;;;7.40;3.85;;;;;;;-145.79;33.66;76588.84;5273646;28;20038;-70
2023/06/14 08:18:57;;;;;;;7.75;3.42;;;;;;;-145.79;33.39;76582.50;5258615;28;20021;-70
2023/06/14 08:21:29;;;;;;;8.75;3.90;;;;;;;-145.79;33.31;76582.50;5257127;28;20037;-71
2023/06/14 08:24:00;;;;;;;6.28;3.35;;;;;;;-145.79;33.39;76563.41;5266883;28;20044;-70
2023/06/14 08:26:31;;;;;;;7.95;3.92;;;;;;;-145.79;33.07;76559.19;5270074;28;20031;-70
2023/06/14 08:29:03;;;;;;;5.63;4.15;;;;;;;-145.79;33.15;76554.94;5276412;28;20025;-72
2023/06/14 08:31:34;;;;;;;8.30;3.47;;;;;;;-145.79;33.49;76546.47;5277641;28;20021;-72
2023/06/14 08:34:05;;;;;;;7.57;3.53;;;;;;;-145.79;32.89;76540.09;5267892;28;20035;-72
2023/06/14 08:36:37;;;;;;;8.57;4.03;;;;;;;-145.79;32.72;76535.88;5254807;28;20017;-73
2023/06/14 08:39:09;;;;;;;5.13;3.35;;;;;;;-145.79;32.78;76529.50;5264507;28;20420;-72
2023/06/14 08:41:40;;;;;;;5.43;3.03;;;;;;;-145.79;32.87;76525.28;5264458;28;20452;-71
2023/06/14 08:44:11;;;;;;;4.93;3.20;;;;;;;-145.79;32.64;76508.31;5264187;28;20029;-71
2023/06/14 08:46:47;;;;;;;4.22;3.17;;;;;;;-145.79;32.40;76510.44;5250827;28;20036;-69
2023/06/14 08:49:21;;;;;;;7.80;3.20;;;;;;;-145.79;32.08;76491.38;5243798;28;20045;-70
2023/06/14 08:52:00;;;;;;;6.00;3.55;;;;;;;-145.79;31.55;76487.13;5242911;28;20029;-71
2023/06/14 08:54:34;;;;;;;7.35;3.15;;;;;;;-145.79;31.94;76485.00;5264566;28;20024;-70
2023/06/14 08:57:07;;;;;;;5.43;2.70;;;;;;;-145.79;32.20;76472.28;5256459;28;20029;-70
2023/06/14 08:59:46;;;;;;;7.85;3.13;;;;;;;-145.79;32.08;76468.06;5243508;28;20038;-70
2023/06/14 09:02:19;;;;;;;8.25;2.70;;;;;;;-145.79;32.08;76465.94;5242814;28;20026;-70
2023/06/14 09:04:50;;;;;;;8.38;3.00;;;;;;;-145.79;31.71;76453.22;5242395;28;20017;-68
2023/06/14 09:07:22;;;;;;;7.07;3.45;;;;;;;-145.79;31.02;76453.22;5243211;28;20036;-76
2023/06/14 09:10:11;;;;;;;6.00;2.50;;;;;;;-145.79;31.50;76448.97;5252006;28;20083;-68
2023/06/14 09:12:43;;;;;;;6.22;3.05;;;;;;;-145.79;30.82;76455.34;5242571;28;20048;-69
2023/06/14 09:15:15;;;;;;;4.28;2.70;;;;;;;-145.79;30.36;76427.78;5246281;28;20040;-68
2023/06/14 09:17:46;;;;;;;6.00;2.47;;;;;;;-145.79;29.89;76444.75;5262116;28;20460;-68
2023/06/14 09:20:18;;;;;;;63.22;57.30;;;;;;;-145.79;30.17;76432.03;5262515;28;20100;-68
2023/06/14 09:22:50;;;;;;;7.78;4.60;;;;;;;-145.79;30.14;76421.44;5262963;28;20074;-68
2023/06/14 09:25:22;;;;;;;4.25;3.30;;;;;;;-145.79;30.39;76415.06;5246466;28;20029;-68
2023/06/14 09:27:53;;;;;;;4.70;2.58;;;;;;;-145.79;29.58;76404.47;5258714;28;20472;-68
2023/06/14 09:30:25;;;;;;;3.80;2.10;;;;;;;-145.79;28.79;76415.06;5263920;28;20024;-68
2023/06/14 09:32:56;;;;;;;4.13;2.10;;;;;;;-145.79;28.43;76406.59;5263122;28;20021;-68
2023/06/14 09:35:30;;;;;;;5.03;1.90;;;;;;;-145.79;28.16;76415.06;5252991;28;20124;-68
2023/06/14 09:38:02;;;;;;;6.22;2.33;;;;;;;-145.79;27.78;76402.38;5242617;28;20030;-68
2023/06/14 09:40:35;;;;;;;4.38;1.63;;;;;;;-145.79;27.99;76423.56;5242345;28;20101;-67
2023/06/14 09:43:09;;;;;;;5.03;4.53;;;;;;;-145.79;28.26;76406.59;5254505;28;20100;-68
2023/06/14 09:45:45;;;;;;;3.30;1.45;;;;;;;-145.79;27.84;76406.59;5262633;28;20501;-68
2023/06/14 09:48:17;;;;;;;2.85;1.52;;;;;;;-145.79;28.00;76398.13;5262258;28;20028;-69
2023/06/14 09:50:50;;;;;;;3.63;2.00;;;;;;;-145.79;27.97;76398.13;5262772;28;20096;-68
2023/06/14 09:53:24;;;;;;;5.30;1.50;;;;;;;-145.79;28.14;76389.66;5262492;28;20460;-70
2023/06/14 09:55:57;;;;;;;3.88;1.65;;;;;;;-145.79;27.85;76364.22;5242357;28;20029;-70
2023/06/14 09:58:30;;;;;;;2.88;1.95;;;;;;;-145.79;28.47;76385.41;5242380;28;20030;-71
2023/06/14 10:01:03;;;;;;;3.40;1.75;;;;;;;-145.79;28.18;76389.66;5247137;28;20051;-70
2023/06/14 10:03:35;;;;;;;4.53;1.80;;;;;;;-145.79;28.36;76387.53;5245490;28;20033;-71
2023/06/14 10:06:09;;;;;;;3.65;1.95;;;;;;;-145.79;27.95;76391.78;5253037;28;20024;-71
2023/06/14 10:08:40;;;;;;;3.78;2.20;;;;;;;-145.79;28.34;76381.16;5250063;28;20530;-71
2023/06/14 10:11:13;;;;;;;3.58;2.45;;;;;;;-145.79;32.12;76362.09;5272446;28;20115;-70
2023/06/14 10:13:45;;;;;;;4.43;2.15;;;;;;;-145.79;29.83;76362.09;5269895;28;20377;-70
2023/06/14 10:16:26;;;;;;;23.30;2.13;;;;;;;-145.79;28.71;76349.38;5261972;28;20123;-70
2023/06/14 10:19:23;;;;;;;5.35;1.80;;;;;;;-145.79;29.04;76334.56;5251883;28;20442;-70
2023/06/14 10:22:01;;;;;;;4.45;2.47;;;;;;;-145.79;28.11;76334.56;5258421;28;20565;-70
2023/06/14 10:24:33;;;;;;;3.17;1.67;;;;;;;-145.79;27.76;76334.56;5263182;28;20033;-69
2023/06/14 10:27:10;;;;;;;4.80;1.98;;;;;;;-145.79;27.94;76330.31;5262246;28;20120;-69
2023/06/14 10:29:53;;;;;;;8.15;2.25;;;;;;;-145.79;28.05;76321.84;5254348;28;20033;-69
2023/06/14 10:32:25;;;;;;;5.13;2.20;;;;;;;-145.79;28.38;76326.06;5240979;28;20032;-70
2023/06/14 10:35:04;;;;;;;4.47;2.92;;;;;;;-145.79;28.08;76313.34;5241998;28;20021;-69
2023/06/14 10:37:35;;;;;;;4.45;2.10;;;;;;;-145.79;28.09;76292.16;5240884;28;20029;-69
2023/06/14 10:40:08;;;;;;;2.72;1.77;;;;;;;-145.79;27.39;76311.25;5241395;28;20032;-69
2023/06/14 10:42:51;;;;;;;3.00;1.70;;;;;;;-145.79;27.51;76315.47;5240604;28;20116;-69
2023/06/14 10:45:22;;;;;;;4.10;2.17;;;;;;;-145.79;28.02;76319.72;5255670;28;20029;-69
2023/06/14 10:47:57;;;;;;;4.93;2.38;;;;;;;-145.79;28.42;76317.59;5261987;28;20027;-69
2023/06/14 10:50:33;;;;;;;4.73;1.87;;;;;;;-145.79;28.39;76304.88;5261407;28;20031;-68
2023/06/14 10:53:39;;;;;;;2.38;1.75;;;;;;;-145.79;28.42;76292.16;5254050;28;20457;-69
2023/06/14 10:56:24;;;;;;;3.80;2.05;;;;;;;-145.79;28.56;76287.94;5261639;28;20039;-69
2023/06/14 10:58:57;;;;;;;3.47;2.58;;;;;;;-145.79;27.80;76290.06;5262039;28;20047;-69
2023/06/14 11:01:36;;;;;;;3.53;1.80;;;;;;;-145.79;27.86;76298.53;5260889;28;20377;-68
2023/06/14 11:04:12;;;;;;;6.28;1.90;;;;;;;-145.79;28.05;76300.66;5261406;28;20416;-68
2023/06/14 11:06:52;;;;;;;;;;;;;;;-145.79;27.89;76283.69;5243042;28;20033;-67
2023/06/14 11:09:32;;;;;;;3.50;2.13;;;;;;;-145.79;27.62;76279.47;5251605;28;20392;-68
2023/06/14 11:12:03;;;;;;;8.73;7.60;;;;;;;-145.79;27.75;76283.69;5259647;28;20033;-71
2023/06/14 11:14:35;;;;;;;12.18;10.95;;;;;;;-145.79;28.14;76279.47;5261662;28;20116;-70
2023/06/14 11:17:06;;;;;;;3.08;1.98;;;;;;;-145.79;28.15;76268.84;5261418;28;20021;-70
2023/06/14 11:19:37;;;;;;;2.17;1.98;;;;;;;-145.79;28.08;76254.03;5260924;28;20384;-70
2023/06/14 11:22:09;;;;;;;3.72;1.83;;;;;;;-145.79;29.07;76245.56;5261321;28;20049;-70
2023/06/14 11:24:40;;;;;;;4.32;2.20;;;;;;;-145.79;28.21;76262.50;5256884;28;20037;-70
2023/06/14 11:27:13;;;;;;;3.70;2.30;;;;;;;-145.79;28.18;76249.78;5258826;28;20029;-70
2023/06/14 11:29:49;;;;;;;5.18;2.33;;;;;;;-145.79;29.04;76251.91;5247528;28;20048;-70
2023/06/14 11:32:21;;;;;;;2.58;1.98;;;;;;;-145.79;27.83;76264.63;5240058;28;20104;-70
2023/06/14 11:34:52;;;;;;;3.95;2.10;;;;;;;-145.79;28.23;76245.56;5241537;28;20021;-70
2023/06/14 11:37:26;;;;;;;3.78;2.00;;;;;;;-145.79;28.65;76224.38;5241067;28;20028;-69
2023/06/14 11:39:57;;;;;;;3.63;2.28;;;;;;;-145.79;28.45;76230.72;5245425;28;20057;-70
2023/06/14 11:42:29;;;;;;;3.10;1.90;;;;;;;-145.79;28.73;76224.38;5250647;28;20064;-70
2023/06/14 11:45:03;;;;;;;4.22;1.77;;;;;;;-145.79;28.14;76232.84;5259421;28;20036;-70
2023/06/14 11:47:38;;;;;;;6.18;3.00;;;;;;;-145.79;28.61;76220.13;5240019;28;20034;-70
2023/06/14 11:50:10;;;;;;;;;;;;;;;-145.79;28.79;76196.81;5241320;28;20083;-70
2023/06/14 11:52:42;;;;;;;4.05;2.25;;;;;;;-145.79;27.83;76230.72;5242919;28;19916;-70
2023/06/14 11:55:13;;;;;;;3.38;1.95;;;;;;;-145.79;27.92;76232.84;5242033;28;20398;-69
2023/06/14 11:57:46;;;;;;;4.15;2.03;;;;;;;-145.79;28.42;76207.41;5239751;28;20137;-70
2023/06/14 12:00:18;;;;;;;4.82;1.85;;;;;;;-145.79;28.86;76198.94;5239350;28;20045;-71
2023/06/14 12:02:55;;;;;;;3.58;2.20;;;;;;;-145.79;28.64;76181.97;5240105;28;20033;-72
2023/06/14 12:05:27;;;;;;;3.95;1.70;;;;;;;-145.79;28.42;76179.88;5242426;28;20029;-70
2023/06/14 12:08:00;;;;;;;4.50;2.13;;;;;;;-145.79;28.03;76188.34;5260191;28;20051;-70
2023/06/14 12:10:40;;;;;;;2.47;1.83;;;;;;;-145.79;27.97;76160.78;5264699;28;20051;-71
2023/06/14 12:13:11;;;;;;;3.55;2.10;;;;;;;-145.79;28.00;76177.75;5265278;28;20025;-70
2023/06/14 12:15:42;;;;;;;3.13;1.90;;;;;;;-145.79;28.31;76152.31;5258898;28;20032;-71
2023/06/14 12:18:13;;;;;;;4.68;1.60;;;;;;;-145.79;28.39;76148.06;5246235;28;20080;-70
2023/06/14 12:20:49;;;;;;;2.63;1.63;;;;;;;-145.79;27.52;76152.31;5243417;28;20033;-71
2023/06/14 12:23:21;;;;;;;6.30;2.58;;;;;;;-145.79;27.76;76122.66;5244066;28;20029;-71
2023/06/14 12:25:52;;;;;;;3.33;2.70;;;;;;;-145.79;27.81;76118.41;5243547;28;20029;-70
2023/06/14 12:28:30;;;;;;;2.13;1.88;;;;;;;-145.79;27.72;76135.38;5242911;28;20028;-70
2023/06/14 12:31:03;;;;;;;3.88;3.58;;;;;;;-145.79;27.76;76145.97;5244226;28;20041;-71
2023/06/14 12:33:34;;;;;;;2.90;1.90;;;;;;;-145.79;28.14;76120.53;5244768;28;20021;-71
2023/06/14 12:36:07;;;;;;;2.45;1.95;;;;;;;-145.79;27.45;76122.66;5255649;28;20307;-71
2023/06/14 12:38:39;;;;;;;1.77;1.58;;;;;;;-145.79;27.18;76118.41;5264861;28;20025;-71
2023/06/14 12:41:10;;;;;;;5.18;1.98;;;;;;;-145.79;27.94;76118.41;5264611;28;20021;-71
2023/06/14 12:43:41;;;;;;;2.40;1.77;;;;;;;-145.79;27.77;76109.94;5246879;28;20029;-70
2023/06/14 12:46:16;;;;;;;3.65;1.65;;;;;;;-145.79;27.92;76109.94;5243430;28;20017;-71
2023/06/14 12:48:48;;;;;;;2.85;1.90;;;;;;;-145.79;27.02;76105.69;5242933;28;20025;-71
2023/06/14 12:51:19;;;;;;;2.30;2.10;;;;;;;-145.79;27.46;76101.47;5248326;28;20465;-71
2023/06/14 12:53:51;;;;;;;3.15;1.92;;;;;;;-145.79;27.50;76103.56;5260723;28;20029;-71
2023/06/14 12:56:22;;;;;;;2.72;1.75;;;;;;;-145.79;27.32;76112.06;5259968;28;20104;-72
2023/06/14 12:58:53;;;;;;;2.17;1.67;;;;;;;-145.79;27.62;76112.06;5254054;28;20018;-68
2023/06/14 13:01:28;;;;;;;2.17;1.98;;;;;;;-145.79;26.60;76116.28;5242951;28;20029;-70
2023/06/14 13:04:02;;;;;;;3.10;1.60;;;;;;;-145.79;27.28;76092.97;5261550;28;20037;-71
2023/06/14 13:06:33;;;;;;;3.15;2.05;;;;;;;-145.79;26.45;76129.00;5252342;28;20054;-71
2023/06/14 13:09:05;;;;;;;2.42;1.63;;;;;;;-145.79;27.02;76101.47;5250926;28;20059;-71
2023/06/14 13:11:37;;;;;;;3.95;3.28;;;;;;;-145.79;26.95;76090.88;5254334;28;20029;-71
2023/06/14 13:14:08;;;;;;;2.17;1.88;;;;;;;-145.79;26.72;76076.03;5261745;28;20047;-70
2023/06/14 13:16:39;;;;;;;2.78;1.35;;;;;;;-145.79;26.45;76069.69;5253832;28;20108;-71
2023/06/14 13:19:13;;;;;;;2.85;1.83;;;;;;;-145.79;26.27;76056.97;5244316;28;20084;-69
2023/06/14 13:21:45;;;;;;;3.55;2.17;;;;;;;-145.79;26.76;76059.09;5252430;28;20045;-69
2023/06/14 13:24:16;;;;;;;3.45;1.40;;;;;;;-145.79;26.69;76059.09;5245691;28;20025;-69
2023/06/14 13:26:47;;;;;;;6.15;2.35;;;;;;;-145.79;26.84;76063.31;5252637;28;20032;-70
2023/06/14 13:29:19;;;;;;;2.05;1.65;;;;;;;-145.79;26.28;76054.84;5242564;28;20112;-70
2023/06/14 13:31:50;;;;;;;3.72;1.50;;;;;;;-145.79;26.45;76029.41;5261088;28;20025;-70
2023/06/14 13:34:22;;;;;;;2.80;1.80;;;;;;;-145.79;26.70;76027.28;5262435;28;20047;-71
2023/06/14 13:36:53;;;;;;;3.13;1.75;;;;;;;-145.79;26.04;76020.94;5261625;28;20513;-70
2023/06/14 13:39:25;;;;;;;3.60;2.05;;;;;;;-145.79;26.30;75991.28;5262632;28;20036;-70
2023/06/14 13:41:57;;;;;;;3.63;2.20;;;;;;;-145.79;26.13;76010.34;5255515;28;20029;-70
2023/06/14 13:44:28;;;;;;;13.20;12.00;;;;;;;-145.79;26.08;75987.03;5242715;28;20021;-71
2023/06/14 13:47:00;;;;;;;2.50;2.15;;;;;;;-145.79;26.64;75980.69;5242952;28;20029;-68
2023/06/14 13:49:31;;;;;;;2.03;1.60;;;;;;;-145.79;26.52;75987.03;5242351;28;20032;-70
2023/06/14 13:52:05;;;;;;;3.15;1.70;;;;;;;-145.79;26.59;75993.41;5241709;28;20025;-70
2023/06/14 13:54:37;;;;;;;3.33;1.92;;;;;;;-145.79;26.80;75965.84;5242518;28;20021;-71
2023/06/14 13:57:09;;;;;;;3.42;1.85;;;;;;;-145.79;26.77;75974.31;5242653;28;20567;-70
2023/06/14 13:59:41;;;;;;;2.22;1.90;;;;;;;-145.79;27.40;75957.38;5250609;28;20018;-70
2023/06/14 14:02:12;;;;;;;2.83;1.70;;;;;;;-145.79;26.87;75953.13;5241502;28;20574;-72
2023/06/14 14:04:44;;;;;;;4.63;1.73;;;;;;;-145.79;26.58;75976.44;5242105;28;20202;-69
2023/06/14 14:07:18;;;;;;;2.50;1.70;;;;;;;-145.79;26.84;75948.91;5241007;28;20104;-69
2023/06/14 14:09:50;;;;;;;1.85;1.52;;;;;;;-145.79;27.01;75938.31;5258200;28;20051;-69
2023/06/14 14:12:21;;;;;;;6.15;1.83;;;;;;;-145.79;27.09;75948.91;5261978;28;20540;-70
2023/06/14 14:14:52;;;;;;;2.08;1.65;;;;;;;-145.79;27.90;75936.19;5261788;28;20036;-71
2023/06/14 14:17:24;;;;;;;4.35;2.00;;;;;;;-145.79;26.50;75917.13;5242498;28;20033;-70
2023/06/14 14:19:55;;;;;;;3.15;1.50;;;;;;;-145.79;26.84;75944.66;5241685;28;20033;-70
2023/06/14 14:22:27;;;;;;;1.85;1.67;;;;;;;-145.79;26.51;75957.38;5241255;28;20509;-71
2023/06/14 14:25:02;;;;;;;5.68;3.65;;;;;;;-145.79;26.71;75982.81;5240393;28;20030;-70
2023/06/14 14:27:33;;;;;;;6.07;4.93;;;;;;;-145.79;26.75;75959.50;5240945;28;20041;-70
2023/06/14 14:30:05;;;;;;;4.60;1.45;;;;;;;-145.79;26.41;75963.72;5241545;28;20025;-71
2023/06/14 14:32:36;;;;;;;4.47;1.70;;;;;;;-145.79;26.60;75931.94;5242004;28;20416;-71
2023/06/14 14:35:08;;;;;;;4.45;1.95;;;;;;;-145.79;26.04;75921.34;5240950;28;20086;-69
2023/06/14 14:37:39;;;;;;;3.40;1.75;;;;;;;-145.79;26.42;75915.00;5242141;28;20021;-68
2023/06/14 14:40:11;;;;;;;3.17;1.52;;;;;;;-145.79;26.05;75948.91;5241456;28;20116;-69
2023/06/14 14:42:42;;;;;;;3.53;1.40;;;;;;;-145.79;26.36;75965.84;5240654;28;20539;-69
2023/06/14 14:45:14;;;;;;;1.65;1.50;;;;;;;-145.79;26.70;75927.72;5241378;28;20021;-69
2023/06/14 14:47:45;;;;;;;3.22;1.15;;;;;;;-145.79;26.02;75929.81;5256789;28;20199;-69
2023/06/14 14:50:16;;;;;;;4.22;1.70;;;;;;;-145.79;26.40;75938.31;5250260;28;20388;-69
2023/06/14 14:52:48;;;;;;;1.08;0.98;;;;;;;-145.79;26.13;75940.41;5241211;28;20025;-70
2023/06/14 14:55:19;;;;;;;4.63;1.30;;;;;;;-145.79;26.00;75948.91;5244257;28;20587;-70
2023/06/14 14:57:50;;;;;;;2.53;1.58;;;;;;;-145.79;25.42;75938.31;5241007;28;20029;-69
2023/06/14 15:00:22;;;;;;;1.65;1.17;;;;;;;-145.79;25.77;75955.25;5249142;28;20053;-69
2023/06/14 15:02:53;;;;;;;1.52;1.05;;;;;;;-145.79;25.73;75925.59;5260827;28;20017;-69
2023/06/14 15:05:24;;;;;;;2.35;1.30;;;;;;;-145.79;26.43;75936.19;5261202;28;20392;-68
2023/06/14 15:07:56;;;;;;;3.22;1.40;;;;;;;-145.79;25.88;75961.63;5245729;28;20025;-68
2023/06/14 15:10:27;;;;;;;2.33;1.13;;;;;;;-145.79;26.12;75980.69;5246475;28;20468;-69
2023/06/14 15:12:58;;;;;;;8.10;2.17;;;;;;;-145.79;26.84;75940.41;5261967;28;20029;-68
2023/06/14 15:15:29;;;;;;;3.13;1.55;;;;;;;-145.79;26.73;75948.91;5259999;28;20376;-69
2023/06/14 15:18:01;;;;;;;2.90;1.40;;;;;;;-145.79;26.93;75938.31;5261231;28;20067;-67
2023/06/14 15:20:32;;;;;;;2.75;1.60;;;;;;;-145.79;26.36;75936.19;5261813;28;20025;-67
2023/06/14 15:23:04;;;;;;;5.32;1.58;;;;;;;-145.79;26.74;75984.91;5260814;28;20045;-68
2023/06/14 15:25:35;;;;;;;4.00;1.80;;;;;;;-145.79;26.85;75982.81;5240250;28;20029;-67
2023/06/14 15:28:09;;;;;;;2.60;1.48;;;;;;;-145.79;27.07;76004.00;5253342;28;20464;-69
2023/06/14 15:30:40;;;;;;;4.63;1.98;;;;;;;-145.79;27.56;75987.03;5259058;28;20052;-68
2023/06/14 15:33:12;;;;;;;2.53;1.48;;;;;;;-145.79;27.09;75989.16;5261595;28;20056;-68
2023/06/14 15:35:43;;;;;;;2.83;1.80;;;;;;;-145.79;27.21;76008.22;5261553;28;20096;-68
2023/06/14 15:38:14;;;;;;;2.58;1.48;;;;;;;-145.79;26.99;75995.50;5260910;28;20029;-67
2023/06/14 15:40:46;;;;;;;2.47;1.38;;;;;;;-145.79;27.12;76016.69;5258540;28;20021;-67
2023/06/14 15:43:17;;;;;;;1.30;1.20;;;;;;;-145.79;27.15;76012.47;5251333;28;20051;-65
2023/06/14 15:45:48;;;;;;;3.58;3.10;;;;;;;-145.79;27.10;76025.19;5264930;28;20468;-65
2023/06/14 15:48:20;;;;;;;1.70;1.30;;;;;;;-145.79;27.34;76010.34;5256027;28;20026;-65
2023/06/14 15:50:52;;;;;;;3.63;1.80;;;;;;;-145.79;27.99;76001.88;5243037;28;20041;-66
2023/06/14 15:53:23;;;;;;;2.10;1.40;;;;;;;-145.79;27.61;76018.81;5243828;28;20033;-64
2023/06/14 15:55:54;;;;;;;1.83;1.17;;;;;;;-145.79;27.52;75993.41;5242524;28;20033;-64
2023/06/14 15:58:26;;;;;;;1.92;1.10;;;;;;;-145.79;27.52;75991.28;5253315;28;20507;-66
2023/06/14 16:00:57;;;;;;;2.80;1.88;;;;;;;-145.79;28.11;75987.03;5244030;28;20070;-65
2023/06/14 16:03:34;;;;;;;3.20;1.30;;;;;;;-145.79;27.31;75982.81;5244670;28;20037;-65
2023/06/14 16:06:05;;;;;;;2.15;1.45;;;;;;;-145.79;27.29;75980.69;5243652;28;20037;-68
2023/06/14 16:08:39;;;;;;;3.17;1.35;;;;;;;-145.79;26.83;75967.97;5244986;28;20030;-69
2023/06/14 16:11:11;;;;;;;2.22;1.42;;;;;;;-145.79;27.60;75991.28;5244709;28;20028;-68
2023/06/14 16:13:42;;;;;;;5.20;1.60;;;;;;;-145.79;26.66;75980.69;5244016;28;20021;-68
2023/06/14 16:16:14;;;;;;;2.83;1.60;;;;;;;-145.79;26.69;75953.13;5262914;28;20032;-68
2023/06/14 16:18:45;;;;;;;1.48;1.27;;;;;;;-145.79;26.92;75940.41;5265577;28;20021;-68
2023/06/14 16:21:16;;;;;;;3.95;1.63;;;;;;;-145.79;27.35;75927.72;5263873;28;20064;-69
2023/06/14 16:23:47;;;;;;;3.40;1.65;;;;;;;-145.79;26.64;75938.31;5265333;28;20110;-70
2023/06/14 16:26:19;;;;;;;2.80;2.33;;;;;;;-145.79;27.48;75919.22;5265254;28;20460;-68
2023/06/14 16:28:50;;;;;;;2.65;1.60;;;;;;;-145.79;26.92;75915.00;5264780;28;20385;-69
2023/06/14 16:31:22;;;;;;;2.63;1.30;;;;;;;-145.79;26.61;75908.63;5264146;28;20060;-69
2023/06/14 16:33:56;;;;;;;2.33;1.40;;;;;;;-145.79;26.30;75915.00;5264367;28;20060;-70
2023/06/14 16:36:27;;;;;;;3.90;1.40;;;;;;;-145.79;26.67;75910.75;5265038;28;20377;-69
2023/06/14 16:38:59;;;;;;;3.08;1.45;;;;;;;-145.79;26.27;75908.63;5264992;28;20070;-69
2023/06/14 16:41:30;;;;;;;3.90;1.42;;;;;;;-145.79;26.12;75885.34;5264357;28;20087;-69
2023/06/14 16:44:03;;;;;;;3.67;1.88;;;;;;;-145.79;26.19;75895.94;5265165;28;20074;-69
2023/06/14 16:46:35;;;;;;;3.85;1.80;;;;;;;-145.79;26.62;75874.75;5264969;28;20021;-69
2023/06/14 16:49:06;;;;;;;1.83;1.30;;;;;;;-145.79;26.31;75891.69;5263129;28;20074;-68
2023/06/14 16:51:38;;;;;;;2.25;1.52;;;;;;;-145.79;26.17;75910.75;5264620;28;20040;-68
2023/06/14 16:54:09;;;;;;;3.15;1.63;;;;;;;-145.79;26.00;75883.22;5264948;28;20511;-68
